Harding, Wisconsin
Current Conditions -  °F | °C
As of 3:15 AM on Monday 24 Nov 2014 (Local Time) from KRRL Reporting Station
Drizzle Drizzle  
Wind Chill: 40°   Ceiling: 1400
Heat Index: 40°   Visibility: 4mi
Dew Point: 40°   Wind: 0mph
Humidity: 100%   Direction: NA
Pressure: 29.07"   Gusts: NA
Location:  45.2167°N, 89.8732°W
Report Text: KRRL 240915Z AUTO 00000KT 4SM DZ SCT003 BKN014 OVC024 05/05 A2907 RMK AO2 T00450045
Loading
Personal Weather Stations






























Interactive Weather Map New forecast layout! Learn more

10-Day Weather Forecast

Advertisements
Track Severe Weather on mobile